createdAt,value
2022-12-22T00:00:07.076Z,7.59
2022-12-22T00:02:52.092Z,7.52
2022-12-22T00:05:40.887Z,7.51
2022-12-22T00:08:26.519Z,7.59
2022-12-22T00:11:12.818Z,7.70
2022-12-22T00:14:00.682Z,7.71
2022-12-22T00:16:51.396Z,7.73
2022-12-22T00:19:36.731Z,7.76
2022-12-22T00:22:31.203Z,7.71
2022-12-22T00:25:16.083Z,7.80
2022-12-22T00:28:01.475Z,7.90
2022-12-22T00:30:46.854Z,7.94
2022-12-22T00:33:35.309Z,7.96
2022-12-22T00:36:22.122Z,8.01
2022-12-22T00:39:06.933Z,8.05
2022-12-22T00:41:51.671Z,8.09
2022-12-22T00:44:36.466Z,8.09
2022-12-22T00:47:21.241Z,7.97
2022-12-22T00:50:07.479Z,7.96
2022-12-22T00:52:53.771Z,8.03
2022-12-22T00:55:50.593Z,8.02
2022-12-22T00:58:38.296Z,7.96
2022-12-22T01:01:23.765Z,8.04
2022-12-22T01:04:08.860Z,8.09
2022-12-22T01:06:55.410Z,8.00
2022-12-22T01:09:41.706Z,8.02
2022-12-22T01:12:38.207Z,8.09
2022-12-22T01:15:30.222Z,7.92
2022-12-22T01:18:15.285Z,7.91
2022-12-22T01:21:00.096Z,7.94
2022-12-22T01:23:44.735Z,7.89
2022-12-22T01:26:30.406Z,7.91
2022-12-22T01:29:15.287Z,7.96
2022-12-22T01:32:00.521Z,7.99
2022-12-22T01:34:45.397Z,7.92
2022-12-22T01:37:30.138Z,7.88
2022-12-22T01:40:14.848Z,8.02
2022-12-22T01:42:59.566Z,7.91
2022-12-22T01:45:48.485Z,8.04
2022-12-22T01:48:38.265Z,7.89
2022-12-22T01:51:31.241Z,7.82
2022-12-22T01:54:17.107Z,7.83
2022-12-22T01:57:03.349Z,7.73
2022-12-22T01:59:48.234Z,7.69
2022-12-22T02:02:35.208Z,7.71
2022-12-22T02:05:23.624Z,7.68
2022-12-22T02:08:17.522Z,7.73
2022-12-22T02:11:20.094Z,7.72
2022-12-22T02:14:29.729Z,7.71
2022-12-22T02:17:18.214Z,7.68
2022-12-22T02:20:39.690Z,7.59
2022-12-22T02:23:58.645Z,7.57
2022-12-22T02:26:56.520Z,7.46
2022-12-22T02:29:47.842Z,7.47
2022-12-22T02:32:32.758Z,7.49
2022-12-22T02:35:17.479Z,7.48
2022-12-22T02:38:10.148Z,7.42
2022-12-22T02:41:08.150Z,7.45
2022-12-22T02:44:10.579Z,7.40
2022-12-22T02:47:33.222Z,7.44
2022-12-22T02:50:43.737Z,7.32
2022-12-22T02:53:32.684Z,7.35
2022-12-22T02:56:21.241Z,7.38
2022-12-22T02:59:06.469Z,7.51
2022-12-22T03:01:51.779Z,7.55
2022-12-22T03:04:37.110Z,7.67
2022-12-22T03:07:21.757Z,7.68
2022-12-22T03:10:06.486Z,7.74
2022-12-22T03:12:51.342Z,7.68
2022-12-22T03:15:36.240Z,7.75
2022-12-22T03:18:24.120Z,7.91
2022-12-22T03:21:08.825Z,7.92
2022-12-22T03:23:53.626Z,7.84
2022-12-22T03:26:20.194Z,7.88
2022-12-22T03:28:46.877Z,8.00
2022-12-22T03:31:13.545Z,8.03
2022-12-22T03:33:40.793Z,7.97
2022-12-22T03:36:08.287Z,8.07
2022-12-22T03:38:34.927Z,7.99
2022-12-22T03:41:01.488Z,8.11
2022-12-22T03:43:46.348Z,8.09
2022-12-22T03:46:15.151Z,8.16
2022-12-22T03:48:41.939Z,8.23
2022-12-22T03:51:08.371Z,8.19
2022-12-22T03:53:34.713Z,8.20
2022-12-22T03:56:07.217Z,8.35
2022-12-22T03:58:34.226Z,8.39
2022-12-22T04:01:07.951Z,8.37
2022-12-22T04:03:34.568Z,8.37
2022-12-22T04:06:01.028Z,8.39
2022-12-22T04:08:27.398Z,8.41
2022-12-22T04:11:12.500Z,8.39
2022-12-22T04:13:38.886Z,8.47
2022-12-22T04:16:05.530Z,8.35
2022-12-22T04:18:31.935Z,8.43
2022-12-22T04:20:58.280Z,8.41
2022-12-22T04:23:24.707Z,8.51
2022-12-22T04:25:51.082Z,8.45
2022-12-22T04:28:17.508Z,8.49
2022-12-22T04:30:43.902Z,8.53
2022-12-22T04:33:10.331Z,8.42
2022-12-22T04:35:36.685Z,8.50
2022-12-22T04:38:03.081Z,8.43
2022-12-22T04:40:29.427Z,8.43
2022-12-22T04:42:55.777Z,8.43
2022-12-22T04:45:22.128Z,8.50
2022-12-22T04:47:48.491Z,8.54
2022-12-22T04:50:15.119Z,8.50
2022-12-22T04:52:41.481Z,8.49
2022-12-22T04:55:09.234Z,8.48
2022-12-22T04:57:40.538Z,8.37
2022-12-22T05:00:08.790Z,8.46
2022-12-22T05:02:35.206Z,8.40
2022-12-22T05:05:01.751Z,8.45
2022-12-22T05:07:28.144Z,8.48
2022-12-22T05:09:54.543Z,8.53
2022-12-22T05:12:39.274Z,8.45
2022-12-22T05:15:06.558Z,8.53
2022-12-22T05:17:32.923Z,8.51
2022-12-22T05:19:59.268Z,8.42
2022-12-22T05:22:25.655Z,8.42
2022-12-22T05:24:52.001Z,8.36
2022-12-22T05:27:18.358Z,8.42
2022-12-22T05:29:44.736Z,8.49
2022-12-22T05:32:11.107Z,8.43
2022-12-22T05:34:37.451Z,8.51
2022-12-22T05:37:03.808Z,8.42
2022-12-22T05:39:30.177Z,8.47
2022-12-22T05:41:56.520Z,8.52
2022-12-22T05:44:22.892Z,8.48
2022-12-22T05:46:52.307Z,8.53
2022-12-22T05:49:19.398Z,8.42
2022-12-22T05:51:46.497Z,8.48
2022-12-22T05:54:12.855Z,8.55
2022-12-22T05:56:39.214Z,8.54
2022-12-22T05:59:05.579Z,8.59
2022-12-22T06:01:31.975Z,8.60
2022-12-22T06:04:00.605Z,8.60
2022-12-22T06:06:27.187Z,8.57
2022-12-22T06:08:53.547Z,8.68
2022-12-22T06:11:19.908Z,8.73
2022-12-22T06:13:46.325Z,8.70
2022-12-22T06:16:12.711Z,8.75
2022-12-22T06:18:39.105Z,8.70
2022-12-22T06:21:05.604Z,8.76
2022-12-22T06:23:31.957Z,8.79
2022-12-22T06:26:01.504Z,8.77
2022-12-22T06:28:28.546Z,8.83
2022-12-22T06:30:55.556Z,8.86
2022-12-22T06:33:22.010Z,8.91
2022-12-22T06:35:52.357Z,8.90
2022-12-22T06:38:23.799Z,8.88
2022-12-22T06:40:50.167Z,8.88
2022-12-22T06:43:16.558Z,8.92
2022-12-22T06:45:43.712Z,8.86
2022-12-22T06:48:12.324Z,8.90
2022-12-22T06:50:39.471Z,8.84
2022-12-22T06:53:08.499Z,8.81
2022-12-22T06:55:35.302Z,8.87
2022-12-22T06:58:02.139Z,8.79
2022-12-22T07:00:28.721Z,8.82
2022-12-22T07:02:55.313Z,8.82
2022-12-22T07:05:23.754Z,8.85
2022-12-22T07:07:50.488Z,8.85
2022-12-22T07:10:16.861Z,8.97
2022-12-22T07:12:43.214Z,9.01
2022-12-22T07:15:10.258Z,8.97
2022-12-22T07:17:36.717Z,9.00
2022-12-22T07:20:03.269Z,8.98
2022-12-22T07:22:30.630Z,8.89
2022-12-22T07:24:57.837Z,8.89
2022-12-22T07:27:24.239Z,8.89
2022-12-22T07:29:50.601Z,8.95
2022-12-22T07:32:16.953Z,8.94
2022-12-22T07:34:43.359Z,8.96
2022-12-22T07:37:09.775Z,8.93
2022-12-22T07:39:36.229Z,8.89
2022-12-22T07:42:21.316Z,8.95
2022-12-22T07:44:47.701Z,8.97
2022-12-22T07:47:14.129Z,8.86
2022-12-22T07:49:59.220Z,8.83
2022-12-22T07:52:25.596Z,8.80
2022-12-22T07:54:51.983Z,8.80
2022-12-22T07:57:18.344Z,8.79
2022-12-22T07:59:44.703Z,8.76
2022-12-22T08:02:12.211Z,8.87
2022-12-22T08:04:38.765Z,8.81
2022-12-22T08:07:05.211Z,8.85
2022-12-22T08:09:31.586Z,8.86
2022-12-22T08:11:57.941Z,8.80
2022-12-22T08:14:24.316Z,8.72
2022-12-22T08:16:50.700Z,8.72
2022-12-22T08:19:17.094Z,8.61
2022-12-22T08:21:50.323Z,8.65
2022-12-22T08:24:19.032Z,8.73
2022-12-22T08:26:49.260Z,8.72
2022-12-22T08:29:23.731Z,8.64
2022-12-22T08:31:50.340Z,8.75
2022-12-22T08:34:17.034Z,8.74
2022-12-22T08:36:48.058Z,8.78
2022-12-22T08:39:16.321Z,8.72
2022-12-22T08:41:51.810Z,8.65
2022-12-22T08:44:29.104Z,8.77
2022-12-22T08:46:58.019Z,8.76
2022-12-22T08:49:25.290Z,8.74
2022-12-22T08:51:52.739Z,8.73
2022-12-22T08:54:19.675Z,8.72
2022-12-22T08:56:46.232Z,8.77
2022-12-22T08:59:13.475Z,8.81
2022-12-22T09:01:44.256Z,8.78
2022-12-22T09:04:15.073Z,8.75
2022-12-22T09:06:41.671Z,8.69
2022-12-22T09:09:10.506Z,8.71
2022-12-22T09:11:37.221Z,8.74
2022-12-22T09:14:05.314Z,8.80
2022-12-22T09:16:33.947Z,8.81
2022-12-22T09:19:00.643Z,8.76
2022-12-22T09:21:28.019Z,8.79
2022-12-22T09:23:55.469Z,8.75
2022-12-22T09:26:23.716Z,8.71
2022-12-22T09:28:51.081Z,8.70
2022-12-22T09:31:19.357Z,8.72
2022-12-22T09:33:46.344Z,8.70
2022-12-22T09:36:15.304Z,8.58
2022-12-22T09:38:42.186Z,8.62
2022-12-22T09:41:14.929Z,8.69
2022-12-22T09:43:41.327Z,8.60
2022-12-22T09:46:35.163Z,8.65
2022-12-22T09:49:01.911Z,8.59
2022-12-22T09:51:29.872Z,8.74
2022-12-22T09:54:01.037Z,8.80
2022-12-22T09:56:28.992Z,8.74
2022-12-22T09:58:55.599Z,8.76
2022-12-22T10:01:48.428Z,8.83
2022-12-22T10:04:44.918Z,8.75
2022-12-22T10:07:32.567Z,8.77
2022-12-22T10:10:17.025Z,8.78
2022-12-22T10:12:43.402Z,8.79
2022-12-22T10:15:16.849Z,8.86
2022-12-22T10:17:50.969Z,8.88
2022-12-22T10:20:26.857Z,8.92
2022-12-22T10:23:01.822Z,8.91
2022-12-22T10:26:17.261Z,8.86
2022-12-22T10:28:27.554Z,8.87
2022-12-22T10:31:18.208Z,8.92
2022-12-22T10:33:47.765Z,8.83
2022-12-22T10:36:21.107Z,8.86
2022-12-22T10:39:08.775Z,8.80
2022-12-22T10:41:47.482Z,8.87
2022-12-22T10:44:13.758Z,8.85
2022-12-22T10:46:44.035Z,8.79
2022-12-22T10:52:30.013Z,8.84
2022-12-22T10:55:19.326Z,8.74
2022-12-22T10:57:45.932Z,8.68
2022-12-22T11:00:23.225Z,8.71
2022-12-22T11:02:54.555Z,8.78
2022-12-22T11:05:21.677Z,8.73
2022-12-22T11:07:48.486Z,8.80
2022-12-22T11:10:14.850Z,8.74
2022-12-22T11:13:02.753Z,8.69
2022-12-22T11:15:47.998Z,8.66
2022-12-22T11:18:30.032Z,8.77
2022-12-22T11:21:24.317Z,8.72
2022-12-22T11:24:01.696Z,8.72
2022-12-22T11:27:01.899Z,8.71
2022-12-22T11:29:50.308Z,8.72
2022-12-22T11:32:37.902Z,8.71
2022-12-22T11:35:26.926Z,8.65
2022-12-22T11:38:19.259Z,8.53
2022-12-22T11:40:50.695Z,8.47
2022-12-22T11:43:46.184Z,8.59
2022-12-22T11:46:23.968Z,8.51
2022-12-22T11:48:53.091Z,8.56
2022-12-22T11:51:43.389Z,8.45
2022-12-22T11:54:38.670Z,8.47
2022-12-22T11:57:33.671Z,8.48
2022-12-22T12:00:17.111Z,8.34
2022-12-22T12:03:18.608Z,8.39
2022-12-22T12:06:16.248Z,8.41
2022-12-22T12:09:18.024Z,8.47
2022-12-22T12:12:08.689Z,8.48
2022-12-22T12:14:53.107Z,8.49
2022-12-22T12:18:00.925Z,8.35
2022-12-22T12:20:49.024Z,8.38
2022-12-22T12:23:34.878Z,8.37
2022-12-22T12:26:06.244Z,8.37
2022-12-22T12:28:32.544Z,8.40
2022-12-22T12:31:00.857Z,8.44
2022-12-22T12:33:51.325Z,8.38
2022-12-22T12:36:46.948Z,8.45
2022-12-22T12:39:25.091Z,8.50
2022-12-22T12:42:10.420Z,8.46
2022-12-22T12:44:38.491Z,8.49
2022-12-22T12:47:20.974Z,8.50
2022-12-22T12:50:24.373Z,8.49
2022-12-22T12:52:50.661Z,8.54
2022-12-22T12:55:32.208Z,8.53
2022-12-22T12:58:02.329Z,8.44
2022-12-22T13:00:34.611Z,8.52
2022-12-22T13:03:02.074Z,8.57
2022-12-22T13:05:50.377Z,8.54
2022-12-22T13:08:47.614Z,8.50
2022-12-22T13:11:52.194Z,8.46
2022-12-22T13:14:05.921Z,8.49
2022-12-22T13:16:38.523Z,8.36
2022-12-22T13:19:14.857Z,8.49
2022-12-22T13:21:54.233Z,8.43
2022-12-22T13:24:26.902Z,8.37
2022-12-22T13:26:55.860Z,8.35
2022-12-22T13:29:22.333Z,8.41
2022-12-22T13:31:53.108Z,8.39
2022-12-22T13:34:22.220Z,8.46
2022-12-22T13:36:50.784Z,8.48
2022-12-22T13:39:17.173Z,8.47
2022-12-22T13:41:46.626Z,8.45
2022-12-22T13:44:19.386Z,8.45
2022-12-22T13:46:46.635Z,8.35
2022-12-22T13:49:30.257Z,8.30
2022-12-22T13:52:05.725Z,8.26
2022-12-22T13:54:35.885Z,8.16
2022-12-22T13:57:05.456Z,8.17
2022-12-22T13:59:35.548Z,8.15
2022-12-22T14:02:08.023Z,8.12
2022-12-22T14:04:39.553Z,8.07
2022-12-22T14:07:18.288Z,8.14
2022-12-22T14:09:56.350Z,8.15
2022-12-22T14:12:25.833Z,8.02
2022-12-22T14:14:54.866Z,8.06
2022-12-22T14:17:22.837Z,8.01
2022-12-22T14:19:51.466Z,7.99
2022-12-22T14:22:33.492Z,7.89
2022-12-22T14:25:08.171Z,7.93
2022-12-22T14:27:42.045Z,7.86
2022-12-22T14:30:26.371Z,7.80
2022-12-22T14:32:56.253Z,7.80
2022-12-22T14:35:22.719Z,7.88
2022-12-22T14:38:18.043Z,7.79
2022-12-22T14:40:45.439Z,7.71
2022-12-22T14:43:18.919Z,7.79
2022-12-22T14:45:48.361Z,7.70
2022-12-22T14:48:27.853Z,7.67
2022-12-22T14:50:55.295Z,7.67
2022-12-22T14:53:28.431Z,7.59
2022-12-22T14:55:54.977Z,7.62
2022-12-22T14:58:31.166Z,7.60
2022-12-22T15:01:16.230Z,7.61
2022-12-22T15:03:43.757Z,7.56
2022-12-22T15:06:28.420Z,7.63
2022-12-22T15:09:06.705Z,7.62
2022-12-22T15:11:36.430Z,7.51
2022-12-22T15:14:04.526Z,7.52
2022-12-22T15:16:31.543Z,7.50
2022-12-22T15:18:58.076Z,7.41
2022-12-22T15:21:24.457Z,7.45
2022-12-22T15:23:50.887Z,7.45
2022-12-22T15:26:17.545Z,7.45
2022-12-22T15:28:43.912Z,7.49
2022-12-22T15:31:15.249Z,7.37
2022-12-22T15:33:42.685Z,7.36
2022-12-22T15:36:11.588Z,7.31
2022-12-22T15:38:39.227Z,7.22
2022-12-22T15:41:06.872Z,7.21
2022-12-22T15:43:57.209Z,7.20
2022-12-22T15:46:22.167Z,7.13
2022-12-22T15:48:48.766Z,7.17
2022-12-22T15:51:24.866Z,7.07
2022-12-22T15:53:52.009Z,7.12
2022-12-22T15:56:21.337Z,7.11
2022-12-22T15:58:48.235Z,7.10
2022-12-22T16:01:14.663Z,7.04
2022-12-22T16:03:41.418Z,7.08
2022-12-22T16:06:13.661Z,7.08
2022-12-22T16:08:44.340Z,7.04
2022-12-22T16:11:10.825Z,7.04
2022-12-22T16:13:37.779Z,6.98
2022-12-22T16:16:05.084Z,6.97
2022-12-22T16:18:32.419Z,6.91
2022-12-22T16:21:08.194Z,6.92
2022-12-22T16:23:36.606Z,6.96
2022-12-22T16:26:04.787Z,6.93
2022-12-22T16:28:32.906Z,6.99
2022-12-22T16:31:00.551Z,6.90
2022-12-22T16:33:27.108Z,6.94
2022-12-22T16:35:53.679Z,6.97
2022-12-22T16:38:20.351Z,6.92
2022-12-22T16:40:50.264Z,6.91
2022-12-22T16:46:13.572Z,6.87
2022-12-22T16:48:44.472Z,6.88
2022-12-22T16:51:26.275Z,6.87
2022-12-22T16:53:53.043Z,6.82
2022-12-22T16:56:23.331Z,6.86
2022-12-22T16:58:49.828Z,6.83
2022-12-22T17:01:37.704Z,6.85
2022-12-22T17:04:11.226Z,6.83
2022-12-22T17:06:38.028Z,6.78
2022-12-22T17:09:07.326Z,6.81
2022-12-22T17:11:34.435Z,6.76
2022-12-22T17:14:07.059Z,6.81
2022-12-22T17:16:33.618Z,6.79
2022-12-22T17:19:00.031Z,6.76
2022-12-22T17:21:29.170Z,6.69
2022-12-22T17:24:03.851Z,6.75
2022-12-22T17:26:33.675Z,6.72
2022-12-22T17:29:00.623Z,6.72
2022-12-22T17:31:27.141Z,6.69
2022-12-22T17:33:53.569Z,6.64
2022-12-22T17:36:39.676Z,6.60
2022-12-22T17:39:12.937Z,6.63
2022-12-22T17:41:39.771Z,6.61
2022-12-22T17:44:06.348Z,6.56
2022-12-22T17:46:32.828Z,6.58
2022-12-22T17:48:59.272Z,6.54
2022-12-22T17:51:28.605Z,6.52
2022-12-22T17:53:57.742Z,6.45
2022-12-22T17:56:25.685Z,6.52
2022-12-22T17:58:52.944Z,6.47
2022-12-22T18:01:21.847Z,6.48
2022-12-22T18:03:48.535Z,6.53
2022-12-22T18:06:18.347Z,6.47
2022-12-22T18:08:45.376Z,6.56
2022-12-22T18:11:11.935Z,6.56
2022-12-22T18:13:38.446Z,6.56
2022-12-22T18:16:05.980Z,6.58
2022-12-22T18:18:32.458Z,6.59
2022-12-22T18:21:05.909Z,6.75
2022-12-22T18:23:36.368Z,6.80
2022-12-22T18:26:09.570Z,6.85
2022-12-22T18:28:36.581Z,6.90
2022-12-22T18:31:03.069Z,7.01
2022-12-22T18:33:29.422Z,7.19
2022-12-22T18:35:58.998Z,7.19
2022-12-22T18:38:29.423Z,7.17
2022-12-22T18:40:56.547Z,7.26
2022-12-22T18:43:23.083Z,7.42
2022-12-22T18:45:50.022Z,7.49
2022-12-22T18:48:16.528Z,7.57
2022-12-22T18:50:43.362Z,7.55
2022-12-22T18:53:30.258Z,7.58
2022-12-22T18:55:57.881Z,7.61
2022-12-22T18:58:25.409Z,7.64
2022-12-22T19:00:54.495Z,7.69
2022-12-22T19:03:24.591Z,7.64
2022-12-22T19:05:51.029Z,7.69
2022-12-22T19:08:19.805Z,7.58
2022-12-22T19:10:58.585Z,7.69
2022-12-22T19:13:37.216Z,7.58
2022-12-22T19:16:04.229Z,7.61
2022-12-22T19:18:30.795Z,7.57
2022-12-22T19:20:57.263Z,7.57
2022-12-22T19:23:25.689Z,7.58
2022-12-22T19:26:08.403Z,7.65
2022-12-22T19:28:41.984Z,7.66
2022-12-22T19:31:12.544Z,7.68
2022-12-22T19:33:42.309Z,7.67
2022-12-22T19:36:37.946Z,7.68
2022-12-22T19:39:05.887Z,7.68
2022-12-22T19:41:43.189Z,7.71
2022-12-22T19:44:30.116Z,7.75
2022-12-22T19:46:59.201Z,7.71
2022-12-22T19:49:27.460Z,7.58
2022-12-22T19:51:55.602Z,7.71
2022-12-22T19:54:22.145Z,7.67
2022-12-22T19:56:54.750Z,7.71
2022-12-22T19:59:37.304Z,7.72
2022-12-22T20:02:27.732Z,7.64
2022-12-22T20:04:55.405Z,7.66
2022-12-22T20:07:24.202Z,7.79
2022-12-22T20:09:50.708Z,7.73
2022-12-22T20:12:31.660Z,7.76
2022-12-22T20:14:58.360Z,7.73
2022-12-22T20:17:24.848Z,7.77
2022-12-22T20:19:51.410Z,7.85
2022-12-22T20:22:20.545Z,7.89
2022-12-22T20:24:49.766Z,7.79
2022-12-22T20:27:27.216Z,7.74
2022-12-22T20:29:53.579Z,7.70
2022-12-22T20:32:27.282Z,7.71
2022-12-22T20:34:54.142Z,7.72
2022-12-22T20:37:20.551Z,7.65
2022-12-22T20:39:46.975Z,7.66
2022-12-22T20:42:19.010Z,7.64
2022-12-22T20:45:02.828Z,7.68
2022-12-22T20:47:33.091Z,7.76
2022-12-22T20:49:59.578Z,7.69
2022-12-22T20:52:26.192Z,7.72
2022-12-22T20:54:52.540Z,7.60
2022-12-22T20:57:20.149Z,7.71
2022-12-22T20:59:53.848Z,7.66
2022-12-22T21:02:26.929Z,7.73
2022-12-22T21:04:53.587Z,7.66
2022-12-22T21:07:19.959Z,7.68
2022-12-22T21:09:46.411Z,7.61
2022-12-22T21:12:12.770Z,7.68
2022-12-22T21:14:39.690Z,7.76
2022-12-22T21:17:15.154Z,7.82
2022-12-22T21:19:41.686Z,7.79
2022-12-22T21:22:08.028Z,7.73
2022-12-22T21:24:34.427Z,7.74
2022-12-22T21:27:00.829Z,7.75
2022-12-22T21:29:27.280Z,7.82
2022-12-22T21:31:54.263Z,7.73
2022-12-22T21:34:20.819Z,7.73
2022-12-22T21:36:50.640Z,7.94
2022-12-22T21:39:33.229Z,7.90
2022-12-22T21:42:04.503Z,7.91
2022-12-22T21:44:33.639Z,7.92
2022-12-22T21:47:00.904Z,7.84
2022-12-22T21:49:30.844Z,7.90
2022-12-22T21:51:57.558Z,7.84
2022-12-22T21:54:24.887Z,7.76
2022-12-22T21:56:53.136Z,7.71
2022-12-22T21:59:19.926Z,7.77
2022-12-22T22:01:46.751Z,7.79
2022-12-22T22:04:13.619Z,7.71
2022-12-22T22:06:40.137Z,7.75
2022-12-22T22:09:07.174Z,7.68
2022-12-22T22:11:53.940Z,7.67
2022-12-22T22:14:20.343Z,7.67
2022-12-22T22:16:46.685Z,7.66
2022-12-22T22:19:13.889Z,7.52
2022-12-22T22:21:40.263Z,7.59
2022-12-22T22:24:06.893Z,7.56
2022-12-22T22:26:33.261Z,7.60
2022-12-22T22:28:59.635Z,7.53
2022-12-22T22:31:26.045Z,7.54
2022-12-22T22:33:52.486Z,7.48
2022-12-22T22:36:18.829Z,7.52
2022-12-22T22:38:45.186Z,7.50
2022-12-22T22:41:11.547Z,7.45
2022-12-22T22:43:37.900Z,7.45
2022-12-22T22:46:04.476Z,7.49
2022-12-22T22:48:31.042Z,7.42
2022-12-22T22:50:57.438Z,7.40
2022-12-22T22:53:23.869Z,7.41
2022-12-22T22:55:50.216Z,7.38
2022-12-22T22:58:16.604Z,7.41
2022-12-22T23:00:42.959Z,7.44
2022-12-22T23:03:09.458Z,7.37
2022-12-22T23:05:36.233Z,7.40
2022-12-22T23:08:02.621Z,7.39
2022-12-22T23:10:29.056Z,7.32
2022-12-22T23:12:55.502Z,7.30
2022-12-22T23:15:21.919Z,7.37
2022-12-22T23:17:51.123Z,7.35
2022-12-22T23:20:17.756Z,7.34
2022-12-22T23:22:44.116Z,7.36
2022-12-22T23:25:10.491Z,7.23
2022-12-22T23:27:36.837Z,7.28
2022-12-22T23:30:04.571Z,7.18
2022-12-22T23:32:30.919Z,7.32
2022-12-22T23:34:57.284Z,7.28
2022-12-22T23:37:23.648Z,7.25
2022-12-22T23:39:50.013Z,7.26
2022-12-22T23:42:16.368Z,7.19
2022-12-22T23:44:42.748Z,7.23
2022-12-22T23:47:09.246Z,7.23
2022-12-22T23:49:35.687Z,7.24
2022-12-22T23:52:02.039Z,7.15
2022-12-22T23:54:30.286Z,7.23
2022-12-22T23:56:56.715Z,7.20
2022-12-22T23:59:23.080Z,7.15
